Time;durP1;ratioP1;P1;durP2;ratioP2;P2;SDS_P1;SDS_P2;PMS_P1;PMS_P2;Temp;Humidity;BMP_temperature;BMP_pressure;BME280_temperature;BME280_humidity;BME280_pressure;Samples;Min_cycle;Max_cycle;Signal;HPM_P1;HPM_P2
2022/09/29 00:01:42;;;;;;;3.72;2.50;;;;;;;16.16;nan;-24267.66;5092787;28;20628;-80
2022/09/29 00:04:08;;;;;;;3.58;2.60;;;;;;;16.13;nan;-24266.66;5093770;28;20310;-81
2022/09/29 00:06:33;;;;;;;4.50;2.67;;;;;;;16.10;nan;-24265.81;5075662;28;20185;-78
2022/09/29 00:08:59;;;;;;;6.65;2.88;;;;;;;16.09;nan;-24265.69;5093508;28;20166;-80
2022/09/29 00:11:24;;;;;;;2.72;2.30;;;;;;;15.61;nan;-24252.41;5093313;28;20613;-78
2022/09/29 00:13:50;;;;;;;3.20;2.42;;;;;;;15.49;nan;-24249.03;5075347;28;20197;-79
2022/09/29 00:16:15;;;;;;;9.15;3.33;;;;;;;15.77;nan;-24256.88;5075039;28;20559;-79
2022/09/29 00:18:41;;;;;;;3.38;2.30;;;;;;;15.73;nan;-24255.75;5091764;28;20183;-77
2022/09/29 00:21:10;;;;;;;2.75;2.22;;;;;;;15.97;nan;-24262.31;5093118;28;20216;-81
2022/09/29 00:23:36;;;;;;;3.65;2.70;;;;;;;15.95;nan;-24261.63;5075008;28;20221;-81
2022/09/29 00:26:09;;;;;;;3.08;2.28;;;;;;;16.02;nan;-24263.72;5091896;28;20602;-80
2022/09/29 00:28:37;;;;;;;4.28;2.45;;;;;;;15.53;nan;-24250.16;5092530;28;20166;-78
2022/09/29 00:31:05;;;;;;;2.85;2.30;;;;;;;15.88;nan;-24259.94;5092634;28;20168;-79
2022/09/29 00:33:32;;;;;;;2.25;1.83;;;;;;;16.05;nan;-24264.44;5092091;28;20225;-82
2022/09/29 00:36:04;;;;;;;2.55;2.13;;;;;;;15.97;nan;-24262.19;5074992;28;20173;-80
2022/09/29 00:38:30;;;;;;;4.43;2.17;;;;;;;16.00;nan;-24263.03;5092668;28;20301;-80
2022/09/29 00:40:55;;;;;;;2.45;2.15;;;;;;;15.87;nan;-24259.66;5074464;28;20266;-81
2022/09/29 00:43:48;;;;;;;3.33;2.45;;;;;;;15.80;nan;-24257.72;5092353;28;20254;-78
2022/09/29 00:46:18;;;;;;;2.70;2.40;;;;;;;15.35;nan;-24245.13;5080834;28;20185;-80
2022/09/29 00:48:45;;;;;;;4.75;2.75;;;;;;;15.58;nan;-24251.56;5092172;28;20711;-82
2022/09/29 00:51:10;;;;;;;3.08;2.20;;;;;;;15.66;nan;-24253.78;5089805;28;20723;-79
2022/09/29 00:53:37;;;;;;;3.97;2.53;;;;;;;15.68;nan;-24254.22;5074196;28;20197;-78
2022/09/29 00:56:06;;;;;;;4.10;2.70;;;;;;;15.75;nan;-24256.19;5091245;28;20187;-78
2022/09/29 00:58:39;;;;;;;5.28;2.67;;;;;;;15.61;nan;-24252.41;5091935;28;20261;-78
2022/09/29 01:01:05;;;;;;;3.95;2.15;;;;;;;15.75;nan;-24256.31;5091993;28;20177;-80
2022/09/29 01:03:36;;;;;;;6.60;3.20;;;;;;;15.55;nan;-24250.72;5073742;28;20609;-80
2022/09/29 01:06:11;;;;;;;2.67;2.10;;;;;;;15.21;nan;-24241.19;5092408;28;20184;-79
2022/09/29 01:08:51;;;;;;;3.55;2.33;;;;;;;14.76;nan;-24228.72;5092142;28;20242;-81
2022/09/29 01:11:18;;;;;;;2.90;2.40;;;;;;;15.20;nan;-24241.06;5088827;28;20261;-77
2022/09/29 01:13:45;;;;;;;6.05;2.15;;;;;;;14.61;nan;-24224.66;5093438;28;20204;-78
2022/09/29 01:16:10;;;;;;;3.70;2.15;;;;;;;14.79;nan;-24229.69;5086851;28;20800;-80
2022/09/29 01:18:36;;;;;;;4.13;2.40;;;;;;;14.45;nan;-24220.31;5072222;28;20162;-80
2022/09/29 01:21:17;;;;;;;2.95;2.20;;;;;;;14.45;nan;-24220.31;5079066;28;20215;-80
2022/09/29 01:24:14;;;;;;;2.90;2.15;;;;;;;14.20;nan;-24213.16;5092320;28;20265;-78
2022/09/29 01:27:10;;;;;;;2.55;2.05;;;;;;;14.16;nan;-24212.16;5092248;28;20256;-80
2022/09/29 01:29:41;;;;;;;3.00;2.38;;;;;;;14.16;nan;-24212.31;5100216;28;20221;-77
2022/09/29 01:32:46;;;;;;;5.45;2.60;;;;;;;14.35;nan;-24217.34;5087137;28;20533;-76
2022/09/29 01:35:21;;;;;;;2.35;2.10;;;;;;;14.37;nan;-24217.94;5091681;28;20204;-80
2022/09/29 01:37:52;;;;;;;2.72;2.30;;;;;;;14.00;nan;-24207.81;5104786;28;20168;-76
2022/09/29 01:40:28;;;;;;;4.43;2.30;;;;;;;14.27;nan;-24215.13;5092278;28;20203;-75
2022/09/29 01:43:04;;;;;;;3.95;2.53;;;;;;;14.17;nan;-24212.44;5106756;28;20218;-77
2022/09/29 01:45:33;;;;;;;6.00;3.15;;;;;;;14.21;nan;-24213.44;5081799;28;20173;-78
2022/09/29 01:48:04;;;;;;;6.25;2.90;;;;;;;13.85;nan;-24203.47;5082964;28;20272;-77
2022/09/29 01:50:39;;;;;;;2.58;2.10;;;;;;;14.01;nan;-24208.09;5102506;28;20173;-75
2022/09/29 01:53:14;;;;;;;3.33;2.45;;;;;;;13.84;nan;-24203.19;5087264;28;20207;-75
2022/09/29 01:55:48;;;;;;;3.65;2.60;;;;;;;13.86;nan;-24203.88;5107879;28;20168;-75
2022/09/29 01:58:19;;;;;;;3.80;2.53;;;;;;;13.35;nan;-24189.56;5108009;28;20232;-76
2022/09/29 02:00:52;;;;;;;5.38;2.97;;;;;;;13.72;nan;-24199.97;5108471;28;20182;-76
2022/09/29 02:03:29;;;;;;;4.53;2.78;;;;;;;13.82;nan;-24202.78;5094355;28;20157;-77
2022/09/29 02:06:00;;;;;;;3.90;2.65;;;;;;;13.63;nan;-24197.56;5113366;28;20169;-81
2022/09/29 02:08:45;;;;;;;3.15;2.35;;;;;;;13.66;nan;-24198.41;5113250;28;20238;-77
2022/09/29 02:11:12;;;;;;;2.88;2.38;;;;;;;13.52;nan;-24194.34;5111993;28;20204;-77
2022/09/29 02:13:40;;;;;;;3.13;2.10;;;;;;;13.64;nan;-24197.72;5112187;28;20193;-78
2022/09/29 02:16:10;;;;;;;3.55;2.90;;;;;;;13.55;nan;-24195.19;5112855;28;20160;-77
2022/09/29 02:19:03;;;;;;;4.22;2.58;;;;;;;13.62;nan;-24197.28;5110082;28;20162;-76
2022/09/29 02:21:29;;;;;;;5.57;2.58;;;;;;;13.20;nan;-24185.50;5102321;28;20190;-78
2022/09/29 02:23:55;;;;;;;3.65;2.40;;;;;;;13.33;nan;-24189.16;5109691;28;20609;-77
2022/09/29 02:26:24;;;;;;;5.43;2.97;;;;;;;13.25;nan;-24187.03;5104198;28;20173;-78
2022/09/29 02:28:51;;;;;;;3.70;2.28;;;;;;;13.32;nan;-24188.88;5105953;28;20715;-77
2022/09/29 02:31:17;;;;;;;4.72;2.80;;;;;;;13.20;nan;-24185.63;5102746;28;20566;-79
2022/09/29 02:33:43;;;;;;;4.60;2.85;;;;;;;12.96;nan;-24178.88;5100859;28;20189;-80
2022/09/29 02:36:27;;;;;;;3.55;2.60;;;;;;;13.38;nan;-24190.56;5089034;28;20184;-77
2022/09/29 02:38:56;;;;;;;5.10;2.75;;;;;;;12.92;nan;-24177.63;5112717;28;20145;-77
2022/09/29 02:41:31;;;;;;;3.45;2.20;;;;;;;13.33;nan;-24189.00;5110817;28;20223;-77
2022/09/29 02:44:17;;;;;;;6.57;2.78;;;;;;;13.40;nan;-24190.97;5109670;28;20238;-77
2022/09/29 02:46:59;;;;;;;3.70;2.95;;;;;;;13.39;nan;-24190.69;5091242;28;20193;-79
2022/09/29 02:49:56;;;;;;;3.85;2.70;;;;;;;13.63;nan;-24197.44;5106391;28;20281;-77
2022/09/29 02:52:30;;;;;;;3.38;2.47;;;;;;;13.63;nan;-24197.56;5097181;28;20192;-76
2022/09/29 02:55:10;;;;;;;3.83;2.60;;;;;;;13.62;nan;-24197.28;5112277;28;20204;-80
2022/09/29 02:58:09;;;;;;;4.95;2.92;;;;;;;13.35;nan;-24189.72;5078352;28;20173;-78
2022/09/29 03:00:35;;;;;;;3.45;2.20;;;;;;;13.28;nan;-24187.75;5113202;28;20172;-79
2022/09/29 03:03:01;;;;;;;3.25;2.33;;;;;;;13.50;nan;-24193.91;5110945;28;20185;-79
2022/09/29 03:05:27;;;;;;;3.05;2.53;;;;;;;13.01;nan;-24180.16;5095063;28;20620;-77
2022/09/29 03:07:52;;;;;;;3.00;2.50;;;;;;;13.35;nan;-24189.56;5095857;28;20211;-81
2022/09/29 03:10:18;;;;;;;3.72;2.65;;;;;;;13.57;nan;-24195.75;5077678;28;20561;-81
2022/09/29 03:12:45;;;;;;;2.90;2.13;;;;;;;13.33;nan;-24189.00;5092777;28;20192;-78
2022/09/29 03:15:11;;;;;;;3.05;2.38;;;;;;;12.81;nan;-24174.66;5093678;28;20211;-79
2022/09/29 03:17:37;;;;;;;3.42;2.50;;;;;;;13.43;nan;-24191.94;5077421;28;20177;-79
2022/09/29 03:20:04;;;;;;;2.83;1.90;;;;;;;13.44;nan;-24192.25;5085074;28;20268;-77
2022/09/29 03:22:29;;;;;;;4.45;1.98;;;;;;;13.08;nan;-24182.25;5079318;28;20221;-76
2022/09/29 03:24:55;;;;;;;4.00;2.80;;;;;;;13.48;nan;-24193.22;5080247;28;20190;-76
2022/09/29 03:27:20;;;;;;;3.78;2.60;;;;;;;13.53;nan;-24194.63;5067550;28;20259;-80
2022/09/29 03:29:45;;;;;;;3.83;2.67;;;;;;;13.29;nan;-24188.03;5079478;28;20597;-76
2022/09/29 03:32:11;;;;;;;3.53;2.35;;;;;;;13.51;nan;-24194.19;5067824;28;20235;-76
2022/09/29 03:34:36;;;;;;;5.40;2.78;;;;;;;13.13;nan;-24183.66;5062143;28;20205;-81
2022/09/29 03:37:02;;;;;;;2.78;2.17;;;;;;;13.21;nan;-24185.91;5078893;28;20226;-80
2022/09/29 03:39:28;;;;;;;3.33;2.10;;;;;;;13.43;nan;-24191.81;5079355;28;20177;-77
2022/09/29 03:41:54;;;;;;;2.75;2.20;;;;;;;13.43;nan;-24191.81;5067973;28;20196;-80
2022/09/29 03:44:19;;;;;;;3.47;2.20;;;;;;;12.99;nan;-24179.59;5066853;28;20575;-78
2022/09/29 03:46:46;;;;;;;3.38;2.53;;;;;;;13.22;nan;-24186.19;5078955;28;20561;-81
2022/09/29 03:49:14;;;;;;;4.53;2.25;;;;;;;13.26;nan;-24187.31;5083267;28;20213;-78
2022/09/29 03:51:40;;;;;;;3.75;2.72;;;;;;;13.30;nan;-24188.16;5078511;28;20229;-80
2022/09/29 03:54:06;;;;;;;3.05;2.22;;;;;;;13.20;nan;-24185.63;5083813;28;20228;-81
2022/09/29 03:56:32;;;;;;;2.70;2.33;;;;;;;13.19;nan;-24185.22;5083004;28;20185;-77
2022/09/29 03:58:57;;;;;;;2.95;2.35;;;;;;;12.77;nan;-24173.53;5079419;28;20240;-80
2022/09/29 04:01:23;;;;;;;2.58;2.03;;;;;;;13.05;nan;-24181.41;5083158;28;20182;-79
2022/09/29 04:03:48;;;;;;;3.22;2.33;;;;;;;13.29;nan;-24188.03;5078423;28;20672;-78
2022/09/29 04:06:14;;;;;;;4.82;2.65;;;;;;;12.92;nan;-24177.75;5079903;28;20197;-78
2022/09/29 04:08:39;;;;;;;2.90;2.53;;;;;;;13.18;nan;-24185.06;5060071;28;20556;-77
2022/09/29 04:11:05;;;;;;;4.57;2.60;;;;;;;13.33;nan;-24189.16;5068906;28;20182;-81
2022/09/29 04:13:31;;;;;;;3.55;2.42;;;;;;;13.00;nan;-24179.88;5085916;28;20309;-79
2022/09/29 04:16:02;;;;;;;2.60;2.15;;;;;;;13.20;nan;-24185.63;5066702;28;20668;-75
2022/09/29 04:18:27;;;;;;;4.35;2.90;;;;;;;13.05;nan;-24181.28;5077788;28;20189;-76
2022/09/29 04:20:56;;;;;;;4.50;2.47;;;;;;;13.13;nan;-24183.66;5082364;28;20245;-78
2022/09/29 04:23:22;;;;;;;3.40;2.25;;;;;;;13.04;nan;-24181.13;5079357;28;20217;-83
2022/09/29 04:25:48;;;;;;;11.77;2.92;;;;;;;13.05;nan;-24181.28;5085870;28;20188;-78
2022/09/29 04:28:13;;;;;;;2.83;2.50;;;;;;;12.81;nan;-24174.66;5084673;28;20185;-75
2022/09/29 04:30:39;;;;;;;2.50;2.22;;;;;;;12.69;nan;-24171.44;5080679;28;20584;-74
2022/09/29 04:33:04;;;;;;;4.38;3.00;;;;;;;12.62;nan;-24169.31;5094518;28;20181;-75
2022/09/29 04:35:29;;;;;;;4.93;2.97;;;;;;;12.90;nan;-24177.19;5091673;28;20234;-75
2022/09/29 04:37:56;;;;;;;5.00;2.92;;;;;;;13.09;nan;-24182.53;5089513;28;20229;-76
2022/09/29 04:40:22;;;;;;;6.30;2.75;;;;;;;13.10;nan;-24182.81;5096926;28;20173;-76
2022/09/29 04:42:48;;;;;;;3.92;2.92;;;;;;;13.05;nan;-24181.41;5074542;28;20193;-77
2022/09/29 04:45:14;;;;;;;4.75;2.75;;;;;;;13.30;nan;-24188.31;5073724;28;20175;-75
2022/09/29 04:47:39;;;;;;;5.03;3.33;;;;;;;13.11;nan;-24183.09;5091899;28;20761;-76
2022/09/29 04:50:05;;;;;;;4.07;2.78;;;;;;;13.41;nan;-24191.25;5090628;28;20165;-77
2022/09/29 04:52:31;;;;;;;3.90;2.92;;;;;;;13.48;nan;-24193.22;5087954;28;20652;-80
2022/09/29 04:54:56;;;;;;;3.85;2.45;;;;;;;13.54;nan;-24194.91;5080445;28;20341;-78
2022/09/29 04:57:21;;;;;;;3.88;2.90;;;;;;;13.31;nan;-24188.59;5074501;28;20196;-78
2022/09/29 04:59:50;;;;;;;4.40;2.38;;;;;;;13.54;nan;-24194.91;5092589;28;20545;-78
2022/09/29 05:02:16;;;;;;;3.63;2.70;;;;;;;13.91;nan;-24205.28;5072334;28;20185;-78
2022/09/29 05:04:41;;;;;;;5.28;2.90;;;;;;;13.95;nan;-24206.41;5073485;28;20199;-77
2022/09/29 05:07:07;;;;;;;3.80;2.45;;;;;;;14.11;nan;-24210.75;5088190;28;20319;-76
2022/09/29 05:09:32;;;;;;;4.75;2.63;;;;;;;13.93;nan;-24205.72;5066125;28;20549;-76
2022/09/29 05:11:58;;;;;;;2.83;2.10;;;;;;;14.34;nan;-24217.06;5077721;28;20662;-78
2022/09/29 05:14:23;;;;;;;4.15;2.65;;;;;;;14.34;nan;-24217.22;5091784;28;20200;-78
2022/09/29 05:16:48;;;;;;;3.17;2.47;;;;;;;14.17;nan;-24212.44;5073530;28;20177;-77
2022/09/29 05:19:14;;;;;;;3.55;2.70;;;;;;;14.46;nan;-24220.44;5090980;28;20737;-79
2022/09/29 05:21:39;;;;;;;4.28;2.60;;;;;;;14.38;nan;-24218.22;5091026;28;20243;-78
2022/09/29 05:24:05;;;;;;;4.00;2.50;;;;;;;14.99;nan;-24235.16;5073126;28;20264;-79
2022/09/29 05:26:31;;;;;;;4.53;2.35;;;;;;;14.70;nan;-24227.03;5074041;28;20173;-80
2022/09/29 05:28:56;;;;;;;4.95;2.70;;;;;;;15.18;nan;-24240.50;5073573;28;20644;-78
2022/09/29 05:31:22;;;;;;;3.25;2.55;;;;;;;15.47;nan;-24248.47;5091390;28;20629;-78
2022/09/29 05:33:47;;;;;;;4.57;2.67;;;;;;;14.86;nan;-24231.66;5075004;28;20596;-83
2022/09/29 05:36:13;;;;;;;2.47;2.17;;;;;;;15.69;nan;-24254.50;5092715;28;20541;-80
2022/09/29 05:38:39;;;;;;;3.50;2.50;;;;;;;15.77;nan;-24256.72;5072566;28;20187;-64
2022/09/29 05:41:05;;;;;;;3.17;2.22;;;;;;;15.99;nan;-24262.75;5090763;28;20165;-61
2022/09/29 05:43:31;;;;;;;4.32;2.63;;;;;;;16.42;nan;-24274.78;5090665;28;20185;-64
2022/09/29 05:46:01;;;;;;;2.92;2.40;;;;;;;16.32;nan;-24271.97;5090874;28;20173;-64
2022/09/29 05:48:29;;;;;;;4.28;2.30;;;;;;;16.72;nan;-24283.16;5083859;28;20186;-62
2022/09/29 05:50:55;;;;;;;5.32;2.28;;;;;;;16.81;nan;-24285.53;5098730;28;20188;-61
2022/09/29 05:53:20;;;;;;;3.55;2.42;;;;;;;16.89;nan;-24287.78;5088357;28;20189;-62
2022/09/29 05:55:45;;;;;;;4.25;2.70;;;;;;;17.11;nan;-24293.91;5095279;28;20502;-61
2022/09/29 05:58:11;;;;;;;3.08;2.17;;;;;;;17.36;nan;-24300.63;5091260;28;20185;-63
2022/09/29 06:00:36;;;;;;;2.90;2.40;;;;;;;17.42;nan;-24302.44;5091079;28;20165;-62
2022/09/29 06:03:02;;;;;;;4.80;2.90;;;;;;;17.13;nan;-24294.34;5091158;28;20180;-63
2022/09/29 06:05:27;;;;;;;5.22;2.88;;;;;;;17.42;nan;-24302.44;5091494;28;20170;-63
2022/09/29 06:07:54;;;;;;;3.42;2.63;;;;;;;17.41;nan;-24302.16;5090836;28;20551;-61
2022/09/29 06:10:20;;;;;;;4.80;2.50;;;;;;;17.61;nan;-24307.75;5091276;28;20204;-64
2022/09/29 06:12:45;;;;;;;5.07;2.42;;;;;;;18.00;nan;-24318.34;5091089;28;20628;-65
2022/09/29 06:15:11;;;;;;;3.63;2.63;;;;;;;17.86;nan;-24314.44;5091057;28;20197;-62
2022/09/29 06:17:37;;;;;;;3.35;2.78;;;;;;;18.26;nan;-24325.59;5091456;28;20689;-64
2022/09/29 06:20:04;;;;;;;2.80;2.08;;;;;;;18.48;nan;-24331.56;5091497;28;20247;-64
2022/09/29 06:22:29;;;;;;;3.20;2.30;;;;;;;18.31;nan;-24326.97;5090571;28;20229;-64
2022/09/29 06:24:55;;;;;;;2.72;1.98;;;;;;;18.89;nan;-24342.84;5091466;28;20176;-61
2022/09/29 06:27:20;;;;;;;4.63;2.15;;;;;;;18.71;nan;-24337.84;5091578;28;20177;-62
2022/09/29 06:29:46;;;;;;;2.55;2.13;;;;;;;18.77;nan;-24339.53;5091342;28;20203;-62
2022/09/29 06:32:11;;;;;;;2.15;1.88;;;;;;;18.78;nan;-24339.78;5090437;28;20212;-64
2022/09/29 06:37:33;;;;;;;2.65;1.80;;;;;;;19.19;nan;-24351.06;5090017;28;20189;-63
2022/09/29 06:37:34;;;;;;;3.53;2.03;;;;;;;19.44;nan;-24357.88;5089884;28;20194;-62
2022/09/29 06:40:00;;;;;;;3.30;1.80;;;;;;;19.66;nan;-24364.00;5091302;28;20676;-63
2022/09/29 06:42:26;;;;;;;2.63;1.92;;;;;;;19.56;nan;-24361.38;5090745;28;20622;-63
2022/09/29 06:44:52;;;;;;;2.90;2.20;;;;;;;19.75;nan;-24366.50;5090975;28;20165;-65
2022/09/29 06:47:17;;;;;;;3.20;2.05;;;;;;;20.20;nan;-24378.88;5090452;28;20250;-61
2022/09/29 06:49:42;;;;;;;2.55;1.88;;;;;;;20.20;nan;-24379.00;5092977;28;20177;-65
2022/09/29 06:52:08;;;;;;;2.50;1.80;;;;;;;20.45;nan;-24385.69;5094463;28;20169;-64
2022/09/29 06:54:33;;;;;;;2.90;1.80;;;;;;;20.38;nan;-24383.88;5094100;28;20273;-62
2022/09/29 06:56:59;;;;;;;3.17;2.15;;;;;;;20.51;nan;-24387.34;5094118;28;20170;-64
2022/09/29 06:59:25;;;;;;;1.95;1.70;;;;;;;20.69;nan;-24392.34;5094709;28;20165;-64
2022/09/29 07:01:50;;;;;;;3.00;2.03;;;;;;;20.58;nan;-24389.44;5094241;28;20182;-63
2022/09/29 07:04:17;;;;;;;4.20;2.03;;;;;;;20.94;nan;-24399.28;5094120;28;20605;-62
2022/09/29 07:06:44;;;;;;;4.22;2.20;;;;;;;21.09;nan;-24403.44;5094024;28;20189;-65
2022/09/29 07:09:14;;;;;;;3.85;1.77;;;;;;;21.03;nan;-24401.78;5093557;28;20197;-63
2022/09/29 07:11:40;;;;;;;2.47;1.77;;;;;;;21.05;nan;-24402.34;5093718;28;20205;-62
2022/09/29 07:14:06;;;;;;;3.58;2.15;;;;;;;21.57;nan;-24416.63;5094071;28;20208;-63
2022/09/29 07:16:31;;;;;;;4.70;2.35;;;;;;;21.31;nan;-24409.41;5093622;28;20166;-61
2022/09/29 07:18:57;;;;;;;4.10;2.03;;;;;;;21.47;nan;-24413.69;5093680;28;20181;-64
2022/09/29 07:21:22;;;;;;;2.38;1.80;;;;;;;21.43;nan;-24412.72;5093550;28;20178;-65
2022/09/29 07:23:48;;;;;;;2.72;1.88;;;;;;;21.77;nan;-24421.88;5093809;28;20173;-62
2022/09/29 07:26:15;;;;;;;6.03;3.70;;;;;;;21.56;nan;-24416.19;5094005;28;20172;-64
2022/09/29 07:28:40;;;;;;;4.20;2.08;;;;;;;21.50;nan;-24414.53;5093664;28;20170;-62
2022/09/29 07:31:09;;;;;;;4.13;1.77;;;;;;;21.37;nan;-24410.94;5093432;28;20175;-65
2022/09/29 07:33:34;;;;;;;2.50;1.95;;;;;;;21.59;nan;-24417.03;5093775;28;20292;-63
2022/09/29 07:36:00;;;;;;;3.40;2.00;;;;;;;21.89;nan;-24425.34;5093681;28;20612;-63
2022/09/29 07:38:27;;;;;;;3.15;2.15;;;;;;;22.27;nan;-24435.72;5093280;28;20309;-65
2022/09/29 07:40:53;;;;;;;3.63;2.10;;;;;;;22.50;nan;-24441.94;5093185;28;20169;-64
2022/09/29 07:43:18;;;;;;;3.17;2.33;;;;;;;22.78;nan;-24449.69;5092900;28;20177;-62
2022/09/29 07:45:46;;;;;;;2.97;1.90;;;;;;;22.73;nan;-24448.19;5092784;28;20311;-62
2022/09/29 07:48:11;;;;;;;2.25;1.80;;;;;;;22.33;nan;-24437.38;5092883;28;20180;-64
2022/09/29 07:50:37;;;;;;;3.28;2.00;;;;;;;22.70;nan;-24447.34;5088066;28;20189;-62
2022/09/29 07:53:02;;;;;;;2.03;1.80;;;;;;;22.86;nan;-24451.78;5077949;28;20533;-61
2022/09/29 07:55:28;;;;;;;2.75;1.73;;;;;;;23.12;nan;-24458.81;5093094;28;20200;-61
2022/09/29 07:57:53;;;;;;;2.00;1.80;;;;;;;23.31;nan;-24464.06;5093040;28;20181;-64
2022/09/29 08:00:18;;;;;;;2.72;1.90;;;;;;;23.41;nan;-24466.81;5092857;28;20230;-62
2022/09/29 08:02:45;;;;;;;2.28;2.00;;;;;;;22.71;nan;-24447.75;5092875;28;20199;-63
2022/09/29 08:05:10;;;;;;;3.40;1.70;;;;;;;22.88;nan;-24452.47;5092886;28;20641;-64
2022/09/29 08:07:35;;;;;;;1.98;1.70;;;;;;;23.13;nan;-24459.22;5093307;28;20173;-64
2022/09/29 08:10:01;;;;;;;2.50;1.60;;;;;;;23.06;nan;-24457.31;5092796;28;20641;-62
2022/09/29 08:12:27;;;;;;;2.38;1.77;;;;;;;23.29;nan;-24463.66;5092923;28;20264;-62
2022/09/29 08:14:52;;;;;;;2.67;1.70;;;;;;;23.04;nan;-24456.59;5092524;28;20347;-61
2022/09/29 08:17:18;;;;;;;3.10;1.80;;;;;;;23.29;nan;-24463.66;5092764;28;20260;-61
2022/09/29 08:19:43;;;;;;;1.60;1.40;;;;;;;23.04;nan;-24456.75;5092446;28;20165;-63
2022/09/29 08:22:08;;;;;;;2.10;1.73;;;;;;;23.54;nan;-24470.41;5092760;28;20213;-62
2022/09/29 08:24:35;;;;;;;1.95;1.50;;;;;;;23.62;nan;-24472.63;5092540;28;20169;-64
2022/09/29 08:27:02;;;;;;;1.67;1.58;;;;;;;23.81;nan;-24477.59;5092815;28;20158;-63
2022/09/29 08:29:27;;;;;;;2.47;1.80;;;;;;;23.55;nan;-24470.69;5092586;28;20169;-64
2022/09/29 08:31:55;;;;;;;2.05;1.63;;;;;;;23.41;nan;-24466.69;5092873;28;20630;-63
2022/09/29 08:34:21;;;;;;;2.33;1.70;;;;;;;23.48;nan;-24468.78;5092457;28;20212;-63
2022/09/29 08:36:47;;;;;;;1.98;1.80;;;;;;;23.42;nan;-24466.97;5092439;28;20177;-63
2022/09/29 08:39:14;;;;;;;2.90;2.13;;;;;;;22.90;nan;-24453.00;5092097;28;20173;-65
2022/09/29 08:41:42;;;;;;;1.60;1.50;;;;;;;23.55;nan;-24470.56;5092456;28;20267;-64
2022/09/29 08:44:16;;;;;;;2.08;1.70;;;;;;;23.84;nan;-24478.44;5091950;28;20231;-64
2022/09/29 08:46:47;;;;;;;2.90;1.73;;;;;;;23.72;nan;-24475.25;5092348;28;20169;-62
2022/09/29 08:49:17;;;;;;;7.00;1.83;;;;;;;24.15;nan;-24486.97;5092202;28;20186;-62
2022/09/29 08:51:49;;;;;;;1.90;1.70;;;;;;;24.13;nan;-24486.44;5090694;28;20248;-62
2022/09/29 08:54:23;;;;;;;6.40;2.08;;;;;;;24.28;nan;-24490.56;5091298;28;20196;-64
2022/09/29 08:56:48;;;;;;;2.60;1.70;;;;;;;24.31;nan;-24491.41;5091911;28;20192;-62
2022/09/29 08:59:14;;;;;;;3.10;2.03;;;;;;;24.38;nan;-24493.19;5091532;28;20170;-64
2022/09/29 09:02:22;;;;;;;2.47;2.10;;;;;;;24.60;nan;-24499.25;5091633;28;20170;-64
2022/09/29 09:05:16;;;;;;;2.30;1.75;;;;;;;24.99;nan;-24509.84;5043808;28;20185;-61
2022/09/29 09:08:02;;;;;;;2.97;1.73;;;;;;;25.39;nan;-24520.88;5091566;28;20189;-65
2022/09/29 09:10:49;;;;;;;2.47;1.80;;;;;;;25.20;nan;-24515.50;5091522;28;20177;-61
2022/09/29 09:13:44;;;;;;;2.60;2.00;;;;;;;25.46;nan;-24522.78;5090776;28;20291;-62
2022/09/29 09:16:43;;;;;;;2.92;2.00;;;;;;;25.78;nan;-24531.31;5091424;28;20162;-64
2022/09/29 09:19:58;;;;;;;3.00;2.10;;;;;;;25.68;nan;-24528.56;5091791;28;20177;-61
2022/09/29 09:22:31;;;;;;;2.20;1.92;;;;;;;25.58;nan;-24525.97;5001116;28;20759;-62
2022/09/29 09:25:18;;;;;;;2.92;2.10;;;;;;;25.61;nan;-24526.66;5090872;28;20284;-65
2022/09/29 09:27:50;;;;;;;2.03;1.77;;;;;;;25.68;nan;-24528.56;5090633;28;20173;-61
2022/09/29 09:30:18;;;;;;;4.10;1.98;;;;;;;25.60;nan;-24526.38;5091852;28;20165;-64
2022/09/29 09:32:53;;;;;;;2.97;1.65;;;;;;;25.87;nan;-24533.81;5091460;28;20212;-62
2022/09/29 09:35:34;;;;;;;5.80;2.40;;;;;;;25.46;nan;-24522.78;5091288;28;20197;-63
2022/09/29 09:38:08;;;;;;;3.38;2.30;;;;;;;25.17;nan;-24514.69;5091583;28;20186;-64
2022/09/29 09:40:41;;;;;;;2.50;1.70;;;;;;;25.44;nan;-24522.25;5091324;28;20165;-61
2022/09/29 09:43:21;;;;;;;2.25;1.70;;;;;;;25.53;nan;-24524.59;5091642;28;20651;-64
2022/09/29 09:45:55;;;;;;;2.22;1.80;;;;;;;25.64;nan;-24527.47;5073446;28;20173;-61
2022/09/29 09:48:28;;;;;;;2.00;1.80;;;;;;;25.62;nan;-24526.94;5091325;28;20245;-63
2022/09/29 09:50:54;;;;;;;2.25;1.80;;;;;;;25.50;nan;-24523.91;5091302;28;20639;-64
2022/09/29 09:53:27;;;;;;;2.03;1.80;;;;;;;25.48;nan;-24523.22;5091135;28;20170;-63
2022/09/29 09:56:06;;;;;;;2.95;2.17;;;;;;;25.42;nan;-24521.69;5091668;28;20174;-62
2022/09/29 09:58:57;;;;;;;6.68;2.20;;;;;;;25.40;nan;-24521.00;5091626;28;20161;-63
2022/09/29 10:01:24;;;;;;;3.35;2.03;;;;;;;25.25;nan;-24517.00;5091901;28;20606;-63
2022/09/29 10:03:49;;;;;;;2.80;2.10;;;;;;;25.54;nan;-24524.88;5091482;28;20590;-61
2022/09/29 10:06:15;;;;;;;3.15;2.40;;;;;;;25.63;nan;-24527.34;5091152;28;20628;-62
2022/09/29 10:08:41;;;;;;;3.67;2.30;;;;;;;25.52;nan;-24524.44;5091609;28;20169;-64
2022/09/29 10:11:25;;;;;;;4.00;2.30;;;;;;;25.94;nan;-24535.88;5091285;28;20322;-62
2022/09/29 10:14:08;;;;;;;2.92;2.15;;;;;;;26.08;nan;-24539.44;5091353;28;20205;-64
2022/09/29 10:16:46;;;;;;;3.35;2.35;;;;;;;25.67;nan;-24528.44;5091418;28;20177;-64
2022/09/29 10:19:12;;;;;;;2.85;2.20;;;;;;;25.92;nan;-24535.31;5091120;28;20175;-64
2022/09/29 10:21:42;;;;;;;2.92;2.30;;;;;;;25.80;nan;-24531.88;5090272;28;20221;-62
2022/09/29 10:24:29;;;;;;;4.00;2.45;;;;;;;25.37;nan;-24520.19;5093014;28;20314;-66
2022/09/29 10:26:58;;;;;;;3.08;2.30;;;;;;;25.42;nan;-24521.56;5094631;28;20261;-61
2022/09/29 10:29:37;;;;;;;3.50;2.17;;;;;;;25.49;nan;-24523.47;5094720;28;20203;-64
2022/09/29 10:32:26;;;;;;;4.70;2.40;;;;;;;25.20;nan;-24515.50;5094668;28;20260;-62
2022/09/29 10:35:00;;;;;;;3.05;2.08;;;;;;;24.77;nan;-24503.78;5094292;28;20266;-62
2022/09/29 10:37:42;;;;;;;5.30;3.03;;;;;;;24.95;nan;-24508.91;5094635;28;20293;-63
2022/09/29 10:40:07;;;;;;;5.25;2.20;;;;;;;25.21;nan;-24515.91;5094145;28;20581;-63
2022/09/29 10:42:49;;;;;;;3.75;2.35;;;;;;;25.56;nan;-24525.41;5094307;28;20640;-63
2022/09/29 10:45:26;;;;;;;3.47;2.33;;;;;;;25.66;nan;-24528.03;5094534;28;20161;-65
2022/09/29 10:47:58;;;;;;;2.75;2.10;;;;;;;25.74;nan;-24530.38;5093890;28;20230;-63
2022/09/29 10:50:28;;;;;;;4.30;2.35;;;;;;;25.52;nan;-24524.44;5094347;28;20590;-65
2022/09/29 10:52:59;;;;;;;4.97;2.40;;;;;;;25.92;nan;-24535.31;5094201;28;20176;-62
2022/09/29 10:55:31;;;;;;;2.83;2.20;;;;;;;26.09;nan;-24539.84;5092755;28;20208;-64
2022/09/29 10:58:15;;;;;;;3.55;2.40;;;;;;;26.35;nan;-24547.00;5094011;28;20161;-64
2022/09/29 11:00:42;;;;;;;4.07;2.33;;;;;;;26.27;nan;-24544.78;5093566;28;20697;-64
2022/09/29 11:03:22;;;;;;;3.65;2.22;;;;;;;26.35;nan;-24547.00;5093720;28;20169;-63
2022/09/29 11:05:52;;;;;;;2.83;2.25;;;;;;;26.48;nan;-24550.44;5093378;28;20176;-65
2022/09/29 11:08:20;;;;;;;4.68;2.55;;;;;;;26.55;nan;-24552.22;5093602;28;20173;-63
2022/09/29 11:10:46;;;;;;;2.90;1.92;;;;;;;26.39;nan;-24547.97;5093342;28;20174;-62
2022/09/29 11:13:18;;;;;;;4.97;2.33;;;;;;;26.55;nan;-24552.22;5093583;28;20601;-61
2022/09/29 11:15:43;;;;;;;2.33;2.00;;;;;;;26.58;nan;-24553.19;5093386;28;20686;-64
2022/09/29 11:18:29;;;;;;;4.97;2.33;;;;;;;26.96;nan;-24563.34;5093176;28;20169;-63
2022/09/29 11:21:21;;;;;;;3.85;2.22;;;;;;;27.09;nan;-24567.03;5093549;28;20196;-64
2022/09/29 11:24:09;;;;;;;4.75;2.90;;;;;;;26.72;nan;-24556.88;5093380;28;20177;-61
2022/09/29 11:26:52;;;;;;;3.13;2.22;;;;;;;26.41;nan;-24548.50;5093394;28;20170;-64
2022/09/29 11:29:32;;;;;;;3.05;2.20;;;;;;;26.55;nan;-24552.22;5092954;28;20199;-64
2022/09/29 11:32:16;;;;;;;4.78;2.45;;;;;;;27.03;nan;-24565.38;5091447;28;20568;-62
2022/09/29 11:35:08;;;;;;;3.28;2.20;;;;;;;27.30;nan;-24572.50;5093030;28;20405;-65
2022/09/29 11:37:54;;;;;;;3.30;2.40;;;;;;;27.34;nan;-24573.63;5093265;28;20272;-65
2022/09/29 11:40:51;;;;;;;2.83;1.90;;;;;;;26.91;nan;-24561.97;5038784;28;20198;-64
2022/09/29 11:43:52;;;;;;;3.10;2.47;;;;;;;26.79;nan;-24558.78;5054061;28;20166;-62
2022/09/29 11:46:57;;;;;;;3.22;2.30;;;;;;;26.86;nan;-24560.72;5072679;28;20256;-62
2022/09/29 11:50:10;;;;;;;4.32;2.72;;;;;;;27.09;nan;-24567.03;5054390;28;20182;-66
2022/09/29 11:53:00;;;;;;;4.35;2.67;;;;;;;27.02;nan;-24565.13;5027867;28;20182;-62
2022/09/29 11:56:04;;;;;;;3.47;2.40;;;;;;;27.02;nan;-24565.13;5072803;28;20209;-66
2022/09/29 11:58:36;;;;;;;3.78;2.60;;;;;;;27.28;nan;-24572.09;5072848;28;20165;-64
2022/09/29 12:01:25;;;;;;;3.33;2.45;;;;;;;27.26;nan;-24571.56;5083922;28;20188;-64